Brentwood, MD

8:32 AM EDT on June 02, 2015 (GMT -0400)
Riverdale Park | | Change Station
CLOSE
Current Station
Personal Weather Station
Location: Riverdale, MD
Elevation: 52 ft
Nearby Weather Stations

Elev 52 ft 38.96 °N, 76.94 °W | Updated 9 seconds ago

Fog
Fog
60.3 °F
Feels Like 60.3 °F
N
5.0
Wind Variable Wind from ENE
Gusts 11.0 mph

Today
High -- | Low -- °F
--% Chance of Precip.
Yesterday
High -- | Low -- °F
Precip. -- in
5:43 AM 8:27 PM
Full, 100% visible
Pressure 30.05 in
Visibility 4.0 miles
Clouds Overcast 600 ft
Dew Point 60 °F
Humidity 99%
Rainfall 0.42 in
Snow Depth Not available.
UV 1 out of 12
Pollen .60 out of 12
Air Quality Not available.
Flu Activity Sporadic
METAR KCGS 021225Z AUTO 00000KT 4SM OVC006 16/16 A3005 RMK AO1

More Conditions Fewer Conditions

Pressure 30.05 in
Visibility 4.0 miles
Clouds Overcast 600 ft
Dew Point 60 °F
Humidity 99%
Rainfall 0.42 in
Snow Depth Not available.
UV 1 out of 12
Pollen .60 out of 12
Air Quality Not available.
Flu Activity Sporadic
METAR KCGS 021225Z AUTO 00000KT 4SM OVC006 16/16 A3005 RMK AO1

More Conditions Fewer Conditions

10-Day Weather Forecast

Almanac

Astronomy

Jun. 02, 2015 Rise Set
Actual Time
Civil Twilight
Nautical Twilight
Astronomical Twilight
Moon
Length of Visible Light
Length of Day
Tomorrow will be .
, % of the Moon is Illuminated

Today's Extremes

State Highs State Lows

Community

WunderPhotos

Upload Photos

1,825,892 photos uploaded!

WunderBlogs® & News

Nearby

Air Quality

  Air Quality AQ Index Pollutant
Not available.

Snow Depth

Station Depth Elevation

Earthquake Activity

City Distance Mag. Time & Date
Minimum magnitude displayed is 2.5.

Coastal Water Temperatures

Place Temperature

Stations

Nearby Weather Stations

Station Location Temp. Windchill Dew Point Humidity Wind Precip. Elev Updated Type